sensor_id;sensor_type;location;lat;lon;timestamp;pressure;altitude;pressure_sealevel;temperature;humidity
36692;BME280;22678;52.052;4.242;2022-10-15T00:00:34;100752.38;;;13.92;89.68
36692;BME280;22678;52.052;4.242;2022-10-15T00:02:59;100729.72;;;13.81;89.58
36692;BME280;22678;52.052;4.242;2022-10-15T00:05:25;100723.84;;;13.69;89.87
36692;BME280;22678;52.052;4.242;2022-10-15T00:07:51;100748.09;;;13.86;90.09
36692;BME280;22678;52.052;4.242;2022-10-15T00:10:16;100748.16;;;13.84;90.19
36692;BME280;22678;52.052;4.242;2022-10-15T00:12:42;100690.69;;;13.55;90.09
36692;BME280;22678;52.052;4.242;2022-10-15T00:15:08;100752.38;;;13.92;90.41
36692;BME280;22678;52.052;4.242;2022-10-15T00:17:34;100716.72;;;13.72;90.49
36692;BME280;22678;52.052;4.242;2022-10-15T00:20:00;100734.09;;;13.82;90.74
36692;BME280;22678;52.052;4.242;2022-10-15T00:22:26;100734.84;;;13.88;91.05
36692;BME280;22678;52.052;4.242;2022-10-15T00:24:51;100744.50;;;13.90;91.18
36692;BME280;22678;52.052;4.242;2022-10-15T00:27:16;100739.13;;;13.93;91.20
36692;BME280;22678;52.052;4.242;2022-10-15T00:29:41;100729.56;;;13.88;91.66
36692;BME280;22678;52.052;4.242;2022-10-15T00:32:07;100736.38;;;13.98;92.06
36692;BME280;22678;52.052;4.242;2022-10-15T00:34:32;100700.72;;;13.78;92.31
36692;BME280;22678;52.052;4.242;2022-10-15T00:36:58;100722.41;;;13.93;92.49
36692;BME280;22678;52.052;4.242;2022-10-15T00:39:23;100731.09;;;13.98;92.47
36692;BME280;22678;52.052;4.242;2022-10-15T00:41:48;100718.97;;;13.89;92.69
36692;BME280;22678;52.052;4.242;2022-10-15T00:46:48;100739.84;;;14.00;92.93
36692;BME280;22678;52.052;4.242;2022-10-15T00:49:29;100738.97;;;13.99;93.07
36692;BME280;22678;52.052;4.242;2022-10-15T00:52:07;100731.09;;;13.98;93.34
36692;BME280;22678;52.052;4.242;2022-10-15T00:54:36;100698.84;;;13.82;93.29
36692;BME280;22678;52.052;4.242;2022-10-15T00:57:03;100698.91;;;13.80;93.61
36692;BME280;22678;52.052;4.242;2022-10-15T00:59:30;100722.41;;;13.93;93.81
36692;BME280;22678;52.052;4.242;2022-10-15T01:01:58;100722.34;;;13.96;94.19
36692;BME280;22678;52.052;4.242;2022-10-15T01:04:24;100711.84;;;13.93;94.45
36692;BME280;22678;52.052;4.242;2022-10-15T01:06:50;100691.81;;;13.82;94.53
36692;BME280;22678;52.052;4.242;2022-10-15T01:09:15;100711.72;;;13.97;94.54
36692;BME280;22678;52.052;4.242;2022-10-15T01:11:49;100707.25;;;13.99;95.00
36692;BME280;22678;52.052;4.242;2022-10-15T01:14:38;100715.00;;;14.07;95.15
36692;BME280;22678;52.052;4.242;2022-10-15T01:32:10;100695.22;;;13.88;95.53
36692;BME280;22678;52.052;4.242;2022-10-15T01:34:47;100695.97;;;13.93;95.49
36692;BME280;22678;52.052;4.242;2022-10-15T01:39:58;100691.75;;;13.86;95.93
36692;BME280;22678;52.052;4.242;2022-10-15T01:42:29;100684.81;;;13.80;95.98
36692;BME280;22678;52.052;4.242;2022-10-15T01:45:01;100690.94;;;13.82;95.81
36692;BME280;22678;52.052;4.242;2022-10-15T01:47:34;100682.91;;;13.85;96.15
36692;BME280;22678;52.052;4.242;2022-10-15T01:50:03;100699.66;;;13.86;96.06
36692;BME280;22678;52.052;4.242;2022-10-15T01:52:32;100685.69;;;13.80;96.03
36692;BME280;22678;52.052;4.242;2022-10-15T01:55:00;100682.25;;;13.77;96.40
36692;BME280;22678;52.052;4.242;2022-10-15T01:57:28;100670.75;;;13.78;96.24
36692;BME280;22678;52.052;4.242;2022-10-15T01:59:56;100685.59;;;13.83;96.62
36692;BME280;22678;52.052;4.242;2022-10-15T02:02:22;100679.66;;;13.75;96.45
36692;BME280;22678;52.052;4.242;2022-10-15T02:04:47;100666.56;;;13.71;96.61
36692;BME280;22678;52.052;4.242;2022-10-15T02:07:42;100683.88;;;13.82;96.68
36692;BME280;22678;52.052;4.242;2022-10-15T02:10:30;100663.69;;;13.80;96.77
36692;BME280;22678;52.052;4.242;2022-10-15T02:20:57;100650.50;;;13.78;97.23
36692;BME280;22678;52.052;4.242;2022-10-15T02:23:35;100637.44;;;13.72;97.38
36692;BME280;22678;52.052;4.242;2022-10-15T02:26:05;100614.03;;;13.57;97.46
36692;BME280;22678;52.052;4.242;2022-10-15T02:28:33;100631.28;;;13.72;97.68
36692;BME280;22678;52.052;4.242;2022-10-15T02:31:00;100624.28;;;13.69;97.71
36692;BME280;22678;52.052;4.242;2022-10-15T02:33:28;100587.69;;;13.54;97.84
36692;BME280;22678;52.052;4.242;2022-10-15T02:35:57;100625.06;;;13.74;97.93
36692;BME280;22678;52.052;4.242;2022-10-15T02:38:24;100605.13;;;13.61;98.01
36692;BME280;22678;52.052;4.242;2022-10-15T02:40:50;100621.63;;;13.71;97.87
36692;BME280;22678;52.052;4.242;2022-10-15T02:43:18;100633.72;;;13.79;97.90
36692;BME280;22678;52.052;4.242;2022-10-15T02:45:44;100626.81;;;13.75;97.91
36692;BME280;22678;52.052;4.242;2022-10-15T02:48:09;100627.66;;;13.76;98.04
36692;BME280;22678;52.052;4.242;2022-10-15T02:50:34;100612.00;;;13.68;98.33
36692;BME280;22678;52.052;4.242;2022-10-15T02:53:00;100605.78;;;13.69;98.34
36692;BME280;22678;52.052;4.242;2022-10-15T02:55:25;100613.72;;;13.69;98.42
36692;BME280;22678;52.052;4.242;2022-10-15T02:57:50;100583.31;;;13.53;98.32
36692;BME280;22678;52.052;4.242;2022-10-15T03:00:16;100616.34;;;13.71;98.36
36692;BME280;22678;52.052;4.242;2022-10-15T03:02:43;100603.31;;;13.63;98.49
36692;BME280;22678;52.052;4.242;2022-10-15T03:05:08;100616.28;;;13.74;98.13
36692;BME280;22678;52.052;4.242;2022-10-15T03:07:33;100601.56;;;13.63;98.37
36692;BME280;22678;52.052;4.242;2022-10-15T03:09:59;100622.41;;;13.74;98.59
36692;BME280;22678;52.052;4.242;2022-10-15T03:12:24;100618.03;;;13.73;98.62
36692;BME280;22678;52.052;4.242;2022-10-15T03:14:50;100615.38;;;13.73;98.47
36692;BME280;22678;52.052;4.242;2022-10-15T03:17:15;100591.03;;;13.62;98.53
36692;BME280;22678;52.052;4.242;2022-10-15T03:19:41;100598.78;;;13.68;98.51
36692;BME280;22678;52.052;4.242;2022-10-15T03:22:06;100601.59;;;13.62;98.49
36692;BME280;22678;52.052;4.242;2022-10-15T03:24:31;100578.91;;;13.53;98.54
36692;BME280;22678;52.052;4.242;2022-10-15T03:26:57;100579.00;;;13.48;98.42
36692;BME280;22678;52.052;4.242;2022-10-15T03:29:22;100567.69;;;13.43;98.33
36692;BME280;22678;52.052;4.242;2022-10-15T03:31:47;100584.31;;;13.47;98.51
36692;BME280;22678;52.052;4.242;2022-10-15T03:34:13;100601.78;;;13.53;98.73
36692;BME280;22678;52.052;4.242;2022-10-15T03:36:38;100594.78;;;13.52;98.73
36692;BME280;22678;52.052;4.242;2022-10-15T03:39:03;100602.69;;;13.53;98.83
36692;BME280;22678;52.052;4.242;2022-10-15T03:41:29;100613.09;;;13.59;99.10
36692;BME280;22678;52.052;4.242;2022-10-15T03:44:00;100613.09;;;13.59;98.96
36692;BME280;22678;52.052;4.242;2022-10-15T03:46:25;100599.22;;;13.49;98.97
36692;BME280;22678;52.052;4.242;2022-10-15T03:48:51;100608.81;;;13.54;98.95
36692;BME280;22678;52.052;4.242;2022-10-15T03:51:16;100602.84;;;13.45;99.15
36692;BME280;22678;52.052;4.242;2022-10-15T03:53:41;100604.59;;;13.46;98.86
36692;BME280;22678;52.052;4.242;2022-10-15T03:56:07;100624.59;;;13.57;99.11
36692;BME280;22678;52.052;4.242;2022-10-15T03:58:32;100630.69;;;13.60;99.09
36692;BME280;22678;52.052;4.242;2022-10-15T04:00:58;100628.94;;;13.59;99.02
36692;BME280;22678;52.052;4.242;2022-10-15T04:03:23;100610.66;;;13.52;99.16
36692;BME280;22678;52.052;4.242;2022-10-15T04:05:50;100624.59;;;13.57;99.26
36692;BME280;22678;52.052;4.242;2022-10-15T04:08:15;100624.59;;;13.57;99.40
36692;BME280;22678;52.052;4.242;2022-10-15T04:10:40;100621.13;;;13.55;99.44
36692;BME280;22678;52.052;4.242;2022-10-15T04:13:06;100624.53;;;13.60;99.60
36692;BME280;22678;52.052;4.242;2022-10-15T04:15:31;100611.56;;;13.49;99.60
36692;BME280;22678;52.052;4.242;2022-10-15T04:17:56;100619.38;;;13.54;99.37
36692;BME280;22678;52.052;4.242;2022-10-15T04:20:22;100604.44;;;13.53;99.79
36692;BME280;22678;52.052;4.242;2022-10-15T04:22:49;100611.31;;;13.60;99.76
36692;BME280;22678;52.052;4.242;2022-10-15T04:25:14;100608.66;;;13.60;99.65
36692;BME280;22678;52.052;4.242;2022-10-15T04:27:40;100596.44;;;13.56;99.91
36692;BME280;22678;52.052;4.242;2022-10-15T04:30:05;100577.34;;;13.44;99.79
36692;BME280;22678;52.052;4.242;2022-10-15T04:32:31;100581.63;;;13.48;99.80
36692;BME280;22678;52.052;4.242;2022-10-15T04:34:56;100584.28;;;13.48;99.82
36692;BME280;22678;52.052;4.242;2022-10-15T04:37:21;100592.97;;;13.54;100.00
36692;BME280;22678;52.052;4.242;2022-10-15T04:39:46;100607.00;;;13.56;99.94
36692;BME280;22678;52.052;4.242;2022-10-15T04:42:12;100582.63;;;13.44;100.00
36692;BME280;22678;52.052;4.242;2022-10-15T04:44:37;100594.78;;;13.52;99.92
36692;BME280;22678;52.052;4.242;2022-10-15T04:47:02;100605.31;;;13.53;99.98
36692;BME280;22678;52.052;4.242;2022-10-15T04:49:28;100605.28;;;13.55;100.00
36692;BME280;22678;52.052;4.242;2022-10-15T04:51:54;100603.53;;;13.54;100.00
36692;BME280;22678;52.052;4.242;2022-10-15T04:54:19;100579.16;;;13.42;99.97
36692;BME280;22678;52.052;4.242;2022-10-15T04:56:45;100579.16;;;13.42;99.89
36692;BME280;22678;52.052;4.242;2022-10-15T04:59:10;100580.06;;;13.41;100.00
36692;BME280;22678;52.052;4.242;2022-10-15T05:01:35;100574.00;;;13.36;99.83
36692;BME280;22678;52.052;4.242;2022-10-15T05:04:00;100579.31;;;13.36;100.00
36692;BME280;22678;52.052;4.242;2022-10-15T05:06:26;100574.88;;;13.37;100.00
36692;BME280;22678;52.052;4.242;2022-10-15T05:08:52;100578.47;;;13.34;99.82
36692;BME280;22678;52.052;4.242;2022-10-15T05:11:23;100578.53;;;13.31;100.00
36692;BME280;22678;52.052;4.242;2022-10-15T05:13:49;100579.34;;;13.33;100.00
36692;BME280;22678;52.052;4.242;2022-10-15T05:16:20;100583.72;;;13.36;100.00
36692;BME280;22678;52.052;4.242;2022-10-15T05:18:48;100594.16;;;13.40;99.96
36692;BME280;22678;52.052;4.242;2022-10-15T05:21:15;100583.69;;;13.37;100.00
36692;BME280;22678;52.052;4.242;2022-10-15T05:23:41;100572.28;;;13.35;100.00
36692;BME280;22678;52.052;4.242;2022-10-15T05:26:10;100561.09;;;13.24;100.00
36692;BME280;22678;52.052;4.242;2022-10-15T05:28:36;100564.34;;;13.33;100.00
36692;BME280;22678;52.052;4.242;2022-10-15T05:31:06;100554.81;;;13.28;100.00
36692;BME280;22678;52.052;4.242;2022-10-15T05:33:32;100553.25;;;13.21;100.00
36692;BME280;22678;52.052;4.242;2022-10-15T05:36:16;100565.38;;;13.28;100.00
36692;BME280;22678;52.052;4.242;2022-10-15T05:38:43;100568.78;;;13.33;100.00
36692;BME280;22678;52.052;4.242;2022-10-15T05:41:09;100583.72;;;13.36;100.00
36692;BME280;22678;52.052;4.242;2022-10-15T05:43:34;100574.91;;;13.35;100.00
36692;BME280;22678;52.052;4.242;2022-10-15T05:45:59;100570.66;;;13.28;100.00
36692;BME280;22678;52.052;4.242;2022-10-15T05:48:25;100561.91;;;13.26;100.00
36692;BME280;22678;52.052;4.242;2022-10-15T05:50:50;100575.84;;;13.34;100.00
36692;BME280;22678;52.052;4.242;2022-10-15T05:53:16;100577.56;;;13.35;100.00
36692;BME280;22678;52.052;4.242;2022-10-15T05:55:41;100556.72;;;13.21;100.00
36692;BME280;22678;52.052;4.242;2022-10-15T05:58:06;100576.75;;;13.31;100.00
36692;BME280;22678;52.052;4.242;2022-10-15T06:00:32;100568.78;;;13.33;100.00
36692;BME280;22678;52.052;4.242;2022-10-15T06:02:57;100561.75;;;13.32;100.00
36692;BME280;22678;52.052;4.242;2022-10-15T06:05:23;100558.22;;;13.33;100.00
36692;BME280;22678;52.052;4.242;2022-10-15T06:07:49;100546.94;;;13.25;100.00
36692;BME280;22678;52.052;4.242;2022-10-15T06:10:14;100560.00;;;13.34;100.00
36692;BME280;22678;52.052;4.242;2022-10-15T06:12:39;100567.09;;;13.29;100.00
36692;BME280;22678;52.052;4.242;2022-10-15T06:15:05;100548.81;;;13.21;100.00
36692;BME280;22678;52.052;4.242;2022-10-15T06:17:30;100549.63;;;13.23;100.00
36692;BME280;22678;52.052;4.242;2022-10-15T06:19:56;100549.59;;;13.25;100.00
36692;BME280;22678;52.052;4.242;2022-10-15T06:22:21;100563.66;;;13.27;100.00
36692;BME280;22678;52.052;4.242;2022-10-15T06:24:46;100566.25;;;13.28;100.00
36692;BME280;22678;52.052;4.242;2022-10-15T06:27:12;100564.44;;;13.30;100.00
36692;BME280;22678;52.052;4.242;2022-10-15T06:29:38;100566.09;;;13.36;100.00
36692;BME280;22678;52.052;4.242;2022-10-15T06:32:03;100554.84;;;13.26;100.00
36692;BME280;22678;52.052;4.242;2022-10-15T06:34:29;100569.63;;;13.33;100.00
36692;BME280;22678;52.052;4.242;2022-10-15T06:36:54;100564.25;;;13.40;100.00
36692;BME280;22678;52.052;4.242;2022-10-15T06:39:19;100528.53;;;13.22;100.00
36692;BME280;22678;52.052;4.242;2022-10-15T06:41:45;100552.81;;;13.39;100.00
36692;BME280;22678;52.052;4.242;2022-10-15T06:44:10;100544.16;;;13.34;100.00
36692;BME280;22678;52.052;4.242;2022-10-15T06:46:35;100560.63;;;13.44;100.00
36692;BME280;22678;52.052;4.242;2022-10-15T06:49:01;100549.28;;;13.40;100.00
36692;BME280;22678;52.052;4.242;2022-10-15T06:51:26;100553.59;;;13.44;100.00
36692;BME280;22678;52.052;4.242;2022-10-15T06:53:52;100558.81;;;13.46;100.00
36692;BME280;22678;52.052;4.242;2022-10-15T06:56:17;100564.88;;;13.49;100.00
36692;BME280;22678;52.052;4.242;2022-10-15T06:58:43;100552.56;;;13.48;100.00
36692;BME280;22678;52.052;4.242;2022-10-15T07:01:08;100563.09;;;13.52;100.00
36692;BME280;22678;52.052;4.242;2022-10-15T07:03:34;100563.84;;;13.57;100.00
36692;BME280;22678;52.052;4.242;2022-10-15T07:06:02;100559.53;;;13.53;100.00
36692;BME280;22678;52.052;4.242;2022-10-15T07:08:28;100560.25;;;13.59;100.00
36692;BME280;22678;52.052;4.242;2022-10-15T07:10:53;100469.03;;;13.08;100.00
36692;BME280;22678;52.052;4.242;2022-10-15T07:13:18;100522.78;;;13.43;100.00
36692;BME280;22678;52.052;4.242;2022-10-15T07:15:44;100565.41;;;13.64;100.00
36692;BME280;22678;52.052;4.242;2022-10-15T07:18:10;100547.09;;;13.58;100.00
36692;BME280;22678;52.052;4.242;2022-10-15T07:20:35;100514.69;;;13.49;100.00
36692;BME280;22678;52.052;4.242;2022-10-15T07:23:01;100508.59;;;13.47;100.00
36692;BME280;22678;52.052;4.242;2022-10-15T07:25:27;100521.44;;;13.61;100.00
36692;BME280;22678;52.052;4.242;2022-10-15T07:27:53;100529.25;;;13.66;100.00
36692;BME280;22678;52.052;4.242;2022-10-15T07:30:20;100510.09;;;13.58;100.00
36692;BME280;22678;52.052;4.242;2022-10-15T07:32:45;100546.59;;;13.76;100.00
36692;BME280;22678;52.052;4.242;2022-10-15T07:35:10;100540.50;;;13.74;100.00
36692;BME280;22678;52.052;4.242;2022-10-15T07:37:36;100542.34;;;13.71;100.00
36692;BME280;22678;52.052;4.242;2022-10-15T07:40:01;100511.00;;;13.57;100.00
36692;BME280;22678;52.052;4.242;2022-10-15T07:42:26;100523.88;;;13.69;100.00
36692;BME280;22678;52.052;4.242;2022-10-15T07:44:52;100532.41;;;13.80;100.00
36692;BME280;22678;52.052;4.242;2022-10-15T07:47:17;100521.03;;;13.77;100.00
36692;BME280;22678;52.052;4.242;2022-10-15T07:49:42;100530.59;;;13.82;100.00
36692;BME280;22678;52.052;4.242;2022-10-15T07:52:08;100524.41;;;13.82;100.00
36692;BME280;22678;52.052;4.242;2022-10-15T07:54:33;100534.91;;;13.85;100.00
36692;BME280;22678;52.052;4.242;2022-10-15T07:56:59;100517.25;;;13.87;100.00
36692;BME280;22678;52.052;4.242;2022-10-15T07:59:24;100523.22;;;13.94;100.00
36692;BME280;22678;52.052;4.242;2022-10-15T08:01:50;100503.22;;;13.83;100.00
36692;BME280;22678;52.052;4.242;2022-10-15T08:04:16;100505.56;;;13.96;100.00
36692;BME280;22678;52.052;4.242;2022-10-15T08:06:41;100517.44;;;14.12;100.00
36692;BME280;22678;52.052;4.242;2022-10-15T08:09:06;100500.09;;;14.02;100.00
36692;BME280;22678;52.052;4.242;2022-10-15T08:11:32;100513.72;;;14.19;100.00
36692;BME280;22678;52.052;4.242;2022-10-15T08:13:57;100520.66;;;14.24;100.00
36692;BME280;22678;52.052;4.242;2022-10-15T08:16:22;100523.31;;;14.22;100.00
36692;BME280;22678;52.052;4.242;2022-10-15T08:18:48;100495.19;;;14.19;100.00
36692;BME280;22678;52.052;4.242;2022-10-15T08:21:13;100512.41;;;14.34;100.00
36692;BME280;22678;52.052;4.242;2022-10-15T08:23:38;100493.38;;;14.22;100.00
36692;BME280;22678;52.052;4.242;2022-10-15T08:26:04;100492.28;;;14.29;100.00
36692;BME280;22678;52.052;4.242;2022-10-15T08:28:31;100511.25;;;14.43;100.00
36692;BME280;22678;52.052;4.242;2022-10-15T08:31:00;100511.22;;;14.45;100.00
36692;BME280;22678;52.052;4.242;2022-10-15T08:33:27;100493.75;;;14.39;100.00
36692;BME280;22678;52.052;4.242;2022-10-15T08:35:52;100500.50;;;14.49;100.00
36692;BME280;22678;52.052;4.242;2022-10-15T08:38:17;100490.09;;;14.43;100.00
36692;BME280;22678;52.052;4.242;2022-10-15T08:40:47;100510.78;;;14.59;100.00
36692;BME280;22678;52.052;4.242;2022-10-15T08:43:22;100509.94;;;14.58;99.71
36692;BME280;22678;52.052;4.242;2022-10-15T08:45:50;100507.44;;;14.53;99.44
36692;BME280;22678;52.052;4.242;2022-10-15T08:48:23;100502.28;;;14.49;99.42
36692;BME280;22678;52.052;4.242;2022-10-15T08:51:04;100505.69;;;14.52;99.16
36692;BME280;22678;52.052;4.242;2022-10-15T08:53:39;100504.00;;;14.50;99.07
36692;BME280;22678;52.052;4.242;2022-10-15T08:56:17;100494.59;;;14.40;99.04
36692;BME280;22678;52.052;4.242;2022-10-15T08:58:50;100501.41;;;14.48;99.09
36692;BME280;22678;52.052;4.242;2022-10-15T09:03:57;100487.50;;;14.42;99.12
36692;BME280;22678;52.052;4.242;2022-10-15T09:06:37;100486.56;;;14.44;99.14
36692;BME280;22678;52.052;4.242;2022-10-15T09:14:22;100493.38;;;14.51;99.26
36692;BME280;22678;52.052;4.242;2022-10-15T09:16:52;100493.38;;;14.51;99.44
36692;BME280;22678;52.052;4.242;2022-10-15T09:19:22;100470.75;;;14.41;99.37
36692;BME280;22678;52.052;4.242;2022-10-15T09:21:50;100477.50;;;14.51;99.60
36692;BME280;22678;52.052;4.242;2022-10-15T09:24:24;100472.19;;;14.51;99.69
36692;BME280;22678;52.052;4.242;2022-10-15T09:32:38;100489.41;;;14.68;99.69
36692;BME280;22678;52.052;4.242;2022-10-15T09:35:25;100478.81;;;14.68;99.69
36692;BME280;22678;52.052;4.242;2022-10-15T09:40:59;100464.91;;;14.60;99.97
36692;BME280;22678;52.052;4.242;2022-10-15T09:43:29;100468.22;;;14.68;100.00
36692;BME280;22678;52.052;4.242;2022-10-15T09:45:59;100466.47;;;14.67;100.00
36692;BME280;22678;52.052;4.242;2022-10-15T09:48:27;100458.63;;;14.64;100.00
36692;BME280;22678;52.052;4.242;2022-10-15T09:50:59;100450.59;;;14.67;100.00
36692;BME280;22678;52.052;4.242;2022-10-15T09:53:42;100469.56;;;14.81;100.00
36692;BME280;22678;52.052;4.242;2022-10-15T09:56:17;100460.78;;;14.79;100.00
36692;BME280;22678;52.052;4.242;2022-10-15T09:58:56;100472.13;;;14.84;100.00
36692;BME280;22678;52.052;4.242;2022-10-15T10:01:29;100460.84;;;14.78;100.00
36692;BME280;22678;52.052;4.242;2022-10-15T10:04:18;100470.22;;;14.88;100.00
36692;BME280;22678;52.052;4.242;2022-10-15T10:06:50;100474.56;;;14.91;100.00
36692;BME280;22678;52.052;4.242;2022-10-15T10:09:18;100478.91;;;14.93;100.00
36692;BME280;22678;52.052;4.242;2022-10-15T10:11:47;100478.00;;;14.93;100.00
36692;BME280;22678;52.052;4.242;2022-10-15T10:14:22;100470.22;;;14.88;100.00
36692;BME280;22678;52.052;4.242;2022-10-15T10:17:18;100476.28;;;14.92;100.00
36692;BME280;22678;52.052;4.242;2022-10-15T10:20:02;100469.38;;;14.87;100.00
36692;BME280;22678;52.052;4.242;2022-10-15T10:22:29;100463.22;;;14.85;100.00
36692;BME280;22678;52.052;4.242;2022-10-15T10:24:54;100463.22;;;14.87;100.00
36692;BME280;22678;52.052;4.242;2022-10-15T10:27:27;100463.97;;;14.91;100.00
36692;BME280;22678;52.052;4.242;2022-10-15T10:30:05;100478.09;;;14.89;100.00
36692;BME280;22678;52.052;4.242;2022-10-15T10:32:32;100440.81;;;14.69;100.00
36692;BME280;22678;52.052;4.242;2022-10-15T10:34:59;100425.94;;;14.65;100.00
36692;BME280;22678;52.052;4.242;2022-10-15T10:37:26;100470.00;;;14.94;100.00
36692;BME280;22678;52.052;4.242;2022-10-15T10:39:54;100475.47;;;14.89;100.00
36692;BME280;22678;52.052;4.242;2022-10-15T10:42:32;100469.38;;;14.87;100.00
36692;BME280;22678;52.052;4.242;2022-10-15T10:45:14;100477.25;;;14.89;100.00
36692;BME280;22678;52.052;4.242;2022-10-15T10:47:40;100449.53;;;14.73;100.00
36692;BME280;22678;52.052;4.242;2022-10-15T10:50:25;100470.22;;;14.88;100.00
36692;BME280;22678;52.052;4.242;2022-10-15T10:52:51;100470.38;;;14.83;100.00
36692;BME280;22678;52.052;4.242;2022-10-15T10:55:22;100457.13;;;14.83;100.00
36692;BME280;22678;52.052;4.242;2022-10-15T10:57:54;100469.25;;;14.91;100.00
36692;BME280;22678;52.052;4.242;2022-10-15T11:00:39;100470.91;;;14.95;100.00
36692;BME280;22678;52.052;4.242;2022-10-15T11:06:00;100461.94;;;14.99;100.00
36692;BME280;22678;52.052;4.242;2022-10-15T11:11:13;100454.59;;;15.07;100.00
36692;BME280;22678;52.052;4.242;2022-10-15T11:14:21;100466.88;;;15.10;100.00
36692;BME280;22678;52.052;4.242;2022-10-15T11:17:06;100438.91;;;15.01;100.00
36692;BME280;22678;52.052;4.242;2022-10-15T11:19:54;100436.13;;;15.05;100.00
36692;BME280;22678;52.052;4.242;2022-10-15T11:23:18;100456.13;;;15.14;100.00
36692;BME280;22678;52.052;4.242;2022-10-15T11:28:06;100460.81;;;15.33;100.00
36692;BME280;22678;52.052;4.242;2022-10-15T11:30:44;100435.66;;;15.19;100.00
36692;BME280;22678;52.052;4.242;2022-10-15T11:55:34;100470.47;;;15.61;100.00
36692;BME280;22678;52.052;4.242;2022-10-15T11:58:06;100479.22;;;15.63;100.00
36692;BME280;22678;52.052;4.242;2022-10-15T12:00:45;100467.78;;;15.62;100.00
36692;BME280;22678;52.052;4.242;2022-10-15T12:03:20;100485.88;;;15.74;100.00
36692;BME280;22678;52.052;4.242;2022-10-15T12:05:53;100478.88;;;15.72;100.00
36692;BME280;22678;52.052;4.242;2022-10-15T12:08:20;100482.47;;;15.71;100.00
36692;BME280;22678;52.052;4.242;2022-10-15T12:13:38;100481.72;;;15.67;100.00
36692;BME280;22678;52.052;4.242;2022-10-15T12:18:54;100458.63;;;15.71;100.00
36692;BME280;22678;52.052;4.242;2022-10-15T12:24:00;100461.06;;;16.02;100.00
36692;BME280;22678;52.052;4.242;2022-10-15T12:26:29;100465.44;;;16.27;100.00
36692;BME280;22678;52.052;4.242;2022-10-15T12:28:58;100440.97;;;16.19;100.00
36692;BME280;22678;52.052;4.242;2022-10-15T12:31:24;100444.44;;;16.21;100.00
36692;BME280;22678;52.052;4.242;2022-10-15T12:36:29;100473.34;;;16.28;100.00
36692;BME280;22678;52.052;4.242;2022-10-15T12:39:02;100477.75;;;16.28;100.00
36692;BME280;22678;52.052;4.242;2022-10-15T12:41:37;100477.03;;;16.24;100.00
36692;BME280;22678;52.052;4.242;2022-10-15T12:44:19;100491.75;;;16.33;100.00
36692;BME280;22678;52.052;4.242;2022-10-15T12:46:46;100483.06;;;16.28;100.00
36692;BME280;22678;52.052;4.242;2022-10-15T12:51:59;100500.78;;;16.51;100.00
36692;BME280;22678;52.052;4.242;2022-10-15T12:56:56;100496.72;;;16.64;99.52
36692;BME280;22678;52.052;4.242;2022-10-15T13:00:02;100509.13;;;16.88;97.23
36692;BME280;22678;52.052;4.242;2022-10-15T13:02:36;100507.78;;;16.99;95.25
36692;BME280;22678;52.052;4.242;2022-10-15T13:05:03;100513.75;;;17.05;93.92
36692;BME280;22678;52.052;4.242;2022-10-15T13:07:31;100525.34;;;17.04;91.98
36692;BME280;22678;52.052;4.242;2022-10-15T13:10:00;100502.84;;;16.90;90.70
36692;BME280;22678;52.052;4.242;2022-10-15T13:12:27;100506.50;;;16.86;88.80
36692;BME280;22678;52.052;4.242;2022-10-15T13:14:56;100445.97;;;16.50;87.96
36692;BME280;22678;52.052;4.242;2022-10-15T13:17:23;100529.41;;;16.90;87.55
36692;BME280;22678;52.052;4.242;2022-10-15T13:19:55;100534.72;;;16.90;86.95
36692;BME280;22678;52.052;4.242;2022-10-15T13:22:28;100521.88;;;16.78;86.62
36692;BME280;22678;52.052;4.242;2022-10-15T13:24:54;100536.63;;;16.85;86.65
36692;BME280;22678;52.052;4.242;2022-10-15T13:27:38;100538.38;;;16.86;86.25
36692;BME280;22678;52.052;4.242;2022-10-15T13:30:05;100533.19;;;16.83;85.99
36692;BME280;22678;52.052;4.242;2022-10-15T13:32:35;100547.06;;;16.91;86.37
36692;BME280;22678;52.052;4.242;2022-10-15T13:35:03;100535.78;;;16.85;86.29
36692;BME280;22678;52.052;4.242;2022-10-15T13:37:34;100546.94;;;16.94;85.83
36692;BME280;22678;52.052;4.242;2022-10-15T13:40:01;100531.25;;;16.88;85.43
36692;BME280;22678;52.052;4.242;2022-10-15T13:42:27;100514.53;;;16.85;85.20
36692;BME280;22678;52.052;4.242;2022-10-15T13:44:58;100541.47;;;16.99;84.89
36692;BME280;22678;52.052;4.242;2022-10-15T13:47:30;100547.00;;;17.15;85.05
36692;BME280;22678;52.052;4.242;2022-10-15T13:52:38;100533.28;;;17.26;82.31
36692;BME280;22678;52.052;4.242;2022-10-15T13:55:08;100520.06;;;17.24;81.89
36692;BME280;22678;52.052;4.242;2022-10-15T13:57:34;100526.31;;;17.23;81.67
36692;BME280;22678;52.052;4.242;2022-10-15T14:00:00;100539.66;;;17.22;81.80
36692;BME280;22678;52.052;4.242;2022-10-15T14:02:25;100558.56;;;17.36;81.71
36692;BME280;22678;52.052;4.242;2022-10-15T14:04:50;100545.34;;;17.34;81.43
36692;BME280;22678;52.052;4.242;2022-10-15T14:07:23;100551.00;;;17.47;81.96
36692;BME280;22678;52.052;4.242;2022-10-15T14:09:51;100542.84;;;17.52;81.11
36692;BME280;22678;52.052;4.242;2022-10-15T14:12:16;100538.19;;;17.57;80.78
36692;BME280;22678;52.052;4.242;2022-10-15T14:14:46;100546.84;;;17.62;80.79
36692;BME280;22678;52.052;4.242;2022-10-15T14:17:21;100561.84;;;17.63;80.79
36692;BME280;22678;52.052;4.242;2022-10-15T14:19:53;100555.94;;;17.57;80.40
36692;BME280;22678;52.052;4.242;2022-10-15T14:22:21;100529.13;;;17.41;79.66
36692;BME280;22678;52.052;4.242;2022-10-15T14:24:50;100548.53;;;17.43;78.99
36692;BME280;22678;52.052;4.242;2022-10-15T14:27:20;100567.06;;;17.44;77.64